Time;durP1;ratioP1;P1;durP2;ratioP2;P2;SDS_P1;SDS_P2;PMS_P1;PMS_P2;Temp;Humidity;BMP_temperature;BMP_pressure;BME280_temperature;BME280_humidity;BME280_pressure;Samples;Min_cycle;Max_cycle;Signal;HPM_P1;HPM_P2
2023/01/31 00:02:18;;;;;;;6.05;4.10;;;;;;;15.82;48.79;100881.03;4982604;28;20033;-82
2023/01/31 00:04:44;;;;;;;6.35;4.18;;;;;;;15.78;48.78;100866.19;5000304;28;20101;-81
2023/01/31 00:07:09;;;;;;;7.30;4.63;;;;;;;15.80;48.76;100878.41;4984740;28;20104;-81
2023/01/31 00:09:35;;;;;;;7.15;4.88;;;;;;;15.78;49.11;100874.94;4985083;28;20089;-81
2023/01/31 00:12:00;;;;;;;6.57;4.47;;;;;;;15.76;48.94;100866.22;5001622;28;20081;-82
2023/01/31 00:14:26;;;;;;;7.05;4.72;;;;;;;15.84;48.78;100881.88;5003299;28;20089;-81
2023/01/31 00:17:27;;;;;;;7.47;4.78;;;;;;;15.78;48.87;100872.31;5012903;28;20036;-83
2023/01/31 00:19:53;;;;;;;7.88;4.47;;;;;;;15.86;48.87;100871.31;5023451;28;20037;-83
2023/01/31 00:22:19;;;;;;;6.90;4.80;;;;;;;15.82;49.13;100866.13;5055716;28;20052;-83
2023/01/31 00:24:44;;;;;;;7.45;5.13;;;;;;;15.83;48.88;100867.84;5055306;28;20024;-83
2023/01/31 00:27:10;;;;;;;7.78;4.93;;;;;;;15.82;48.90;100865.22;5055022;28;20005;-83
2023/01/31 00:29:36;;;;;;;7.13;4.97;;;;;;;15.86;49.03;100861.66;5053719;28;20025;-83
2023/01/31 00:32:02;;;;;;;7.78;5.35;;;;;;;15.84;48.87;100856.41;5040367;28;20034;-84
2023/01/31 00:34:33;;;;;;;6.65;4.72;;;;;;;15.83;48.96;100852.06;5036224;28;20052;-83
2023/01/31 00:37:41;;;;;;;7.75;4.82;;;;;;;15.88;48.90;100864.28;5036866;28;20029;-83
2023/01/31 00:40:17;;;;;;;7.07;4.78;;;;;;;15.88;48.66;100853.75;5037242;28;20050;-83
2023/01/31 00:43:08;;;;;;;6.13;4.67;;;;;;;15.86;48.79;100861.66;4934282;28;20130;-83
2023/01/31 00:45:36;;;;;;;6.70;4.70;;;;;;;15.83;48.94;100852.06;4994946;28;20031;-83
2023/01/31 00:48:04;;;;;;;6.45;4.63;;;;;;;15.85;48.92;100857.28;4996552;28;20043;-83
2023/01/31 00:50:29;;;;;;;6.63;5.20;;;;;;;15.82;48.80;100849.44;4977432;28;20022;-83
2023/01/31 00:52:56;;;;;;;7.28;4.85;;;;;;;15.83;48.74;100844.16;4977809;28;20041;-83
2023/01/31 00:55:43;;;;;;;6.97;5.18;;;;;;;15.85;48.72;100852.03;4992719;28;20038;-83
2023/01/31 00:58:10;;;;;;;6.82;4.90;;;;;;;15.88;48.76;100849.34;4991706;28;20015;-83
2023/01/31 01:00:39;;;;;;;6.72;4.75;;;;;;;15.86;49.15;100839.72;4993902;28;20054;-84
2023/01/31 01:03:05;;;;;;;7.50;4.85;;;;;;;15.87;49.01;100841.50;4994084;28;20125;-84
2023/01/31 01:05:31;;;;;;;7.35;5.30;;;;;;;15.87;49.06;100841.50;4993932;28;20031;-83
2023/01/31 01:07:56;;;;;;;8.32;5.13;;;;;;;15.91;48.74;100845.78;4978620;28;20046;-84
2023/01/31 01:10:44;;;;;;;6.80;4.93;;;;;;;15.92;48.83;100844.88;4974070;28;20118;-83
2023/01/31 01:13:43;;;;;;;7.70;4.90;;;;;;;15.88;48.76;100833.53;4934240;28;20062;-83
2023/01/31 01:16:48;;;;;;;6.45;5.00;;;;;;;15.91;49.04;100837.88;4993582;28;20025;-83
2023/01/31 01:19:51;;;;;;;6.60;4.55;;;;;;;15.89;48.99;100830.00;4980788;28;20090;-83
2023/01/31 01:22:17;;;;;;;6.82;4.75;;;;;;;15.91;49.09;100832.63;4992169;28;20038;-82
2023/01/31 01:24:44;;;;;;;8.60;5.32;;;;;;;15.93;48.91;100833.50;4995879;28;20038;-83
2023/01/31 01:27:12;;;;;;;7.70;5.47;;;;;;;15.96;48.63;100822.91;4995327;28;20066;-83
2023/01/31 01:29:38;;;;;;;7.45;4.90;;;;;;;15.89;49.09;100810.72;4993511;28;20055;-83
2023/01/31 01:32:06;;;;;;;7.97;5.20;;;;;;;15.90;48.84;100815.09;4993888;28;20031;-83
2023/01/31 01:35:02;;;;;;;7.05;5.00;;;;;;;15.93;48.97;100820.34;4963058;28;20039;-84
2023/01/31 01:37:29;;;;;;;6.00;4.68;;;;;;;15.90;48.64;100807.19;4975200;28;20039;-84
2023/01/31 01:39:55;;;;;;;8.20;5.00;;;;;;;15.96;48.86;100830.81;4995955;28;20011;-84
2023/01/31 01:42:24;;;;;;;7.13;5.20;;;;;;;15.91;48.95;100817.69;5030637;28;20061;-83
2023/01/31 01:45:02;;;;;;;7.10;5.15;;;;;;;16.00;48.98;100831.63;5030450;28;20017;-82
2023/01/31 01:47:51;;;;;;;7.10;5.10;;;;;;;15.99;48.97;100830.75;5031882;28;20026;-82
2023/01/31 01:50:47;;;;;;;7.93;5.65;;;;;;;15.96;48.77;100825.53;5018734;28;20037;-83
2023/01/31 01:53:20;;;;;;;7.63;4.73;;;;;;;15.94;48.66;100832.59;5034706;28;20022;-83
2023/01/31 01:55:54;;;;;;;7.88;5.40;;;;;;;15.99;48.71;100836.03;5033159;28;20026;-83
2023/01/31 01:58:28;;;;;;;6.70;4.50;;;;;;;15.95;48.79;100832.59;5026380;28;20090;-83
2023/01/31 02:00:54;;;;;;;8.55;5.60;;;;;;;15.95;48.81;100823.81;5026399;28;20101;-83
2023/01/31 02:03:22;;;;;;;7.13;4.85;;;;;;;15.93;48.89;100821.19;5025153;28;20128;-83
2023/01/31 02:05:55;;;;;;;6.78;4.78;;;;;;;15.92;48.92;100830.00;5025479;28;20164;-82
2023/01/31 02:08:23;;;;;;;6.47;4.72;;;;;;;16.00;48.96;100827.22;5027024;28;20014;-84
2023/01/31 02:11:06;;;;;;;7.32;4.88;;;;;;;15.96;48.73;100825.53;5034007;28;20026;-83
2023/01/31 02:13:34;;;;;;;7.13;5.13;;;;;;;16.01;48.77;100826.34;5025512;28;20026;-82
2023/01/31 02:16:00;;;;;;;6.70;4.60;;;;;;;15.99;48.85;100822.88;5028105;28;20029;-83
2023/01/31 02:18:27;;;;;;;6.68;4.55;;;;;;;15.99;48.83;100814.97;5027762;28;20018;-83
2023/01/31 02:21:27;;;;;;;6.72;4.80;;;;;;;16.03;48.62;100816.63;5010175;28;20022;-83
2023/01/31 02:24:30;;;;;;;6.80;4.60;;;;;;;16.03;48.83;100827.16;5030979;28;20068;-83
2023/01/31 02:27:23;;;;;;;7.03;5.38;;;;;;;15.99;48.75;100809.72;5029179;28;20042;-82
2023/01/31 02:30:17;;;;;;;6.53;4.78;;;;;;;16.02;48.73;100814.91;4936724;28;20027;-82
2023/01/31 02:33:12;;;;;;;6.38;4.65;;;;;;;16.06;48.74;100824.47;4935776;29;20031;-82
2023/01/31 02:36:18;;;;;;;6.90;4.88;;;;;;;16.06;48.86;100821.84;4954521;29;20043;-83
2023/01/31 02:39:01;;;;;;;6.72;4.53;;;;;;;16.09;48.57;100821.78;4887948;29;20120;-82
2023/01/31 02:41:51;;;;;;;6.90;4.60;;;;;;;16.01;48.79;100815.78;4893801;29;20037;-82
2023/01/31 02:47:33;;;;;;;7.28;5.22;;;;;;;16.06;48.45;100819.22;4893404;29;20063;-83
2023/01/31 02:50:47;;;;;;;6.13;4.28;;;;;;;16.07;48.88;100823.59;4897472;29;20109;-82
2023/01/31 02:53:45;;;;;;;6.85;5.00;;;;;;;16.09;49.00;100823.56;4898450;29;20041;-82
2023/01/31 02:56:23;;;;;;;6.43;4.57;;;;;;;16.13;48.73;100819.09;4896368;29;20122;-82
2023/01/31 02:58:55;;;;;;;6.53;4.78;;;;;;;16.13;48.77;100811.19;4892673;29;20033;-82
2023/01/31 03:01:29;;;;;;;6.38;4.55;;;;;;;16.08;48.97;100804.25;4890747;29;20037;-82
2023/01/31 03:04:00;;;;;;;5.88;4.50;;;;;;;16.07;48.92;100802.53;4892116;29;20052;-82
2023/01/31 03:06:26;;;;;;;6.97;4.45;;;;;;;16.13;48.75;100800.66;4910528;29;20171;-82
2023/01/31 03:09:08;;;;;;;6.07;4.43;;;;;;;16.14;48.84;100802.41;4947758;29;20040;-82
2023/01/31 03:11:52;;;;;;;7.03;4.75;;;;;;;16.11;48.85;100808.59;4946427;29;20031;-82
2023/01/31 03:14:32;;;;;;;7.65;4.28;;;;;;;16.14;48.87;100807.66;4950231;28;20035;-83
2023/01/31 03:20:03;;;;;;;6.80;4.78;;;;;;;16.12;48.79;100804.19;5019208;28;20041;-83
2023/01/31 03:22:35;;;;;;;6.20;4.40;;;;;;;16.13;48.81;100803.31;5018749;28;20022;-83
2023/01/31 03:25:24;;;;;;;6.60;4.45;;;;;;;16.11;48.77;100798.06;5018096;28;20070;-83
2023/01/31 03:27:55;;;;;;;6.93;4.55;;;;;;;16.16;48.88;100805.84;4998450;28;20030;-83
2023/01/31 03:30:37;;;;;;;7.00;4.50;;;;;;;16.14;48.58;100803.28;4998427;28;20026;-83
2023/01/31 03:33:29;;;;;;;6.13;4.65;;;;;;;16.09;48.86;100791.97;5001932;28;20046;-82
2023/01/31 03:36:36;;;;;;;6.72;4.70;;;;;;;16.12;48.89;100798.94;5013826;28;20026;-83
2023/01/31 03:39:18;;;;;;;6.30;4.15;;;;;;;16.16;48.82;100805.84;5011355;28;20066;-84
2023/01/31 03:42:20;;;;;;;6.05;4.15;;;;;;;16.16;48.82;100811.13;5018878;28;20011;-82
2023/01/31 03:45:03;;;;;;;5.90;4.40;;;;;;;16.20;48.83;100815.44;5012204;28;20050;-83
2023/01/31 03:47:46;;;;;;;5.75;4.13;;;;;;;16.20;48.85;100818.06;4992958;28;20027;-83
2023/01/31 03:50:37;;;;;;;6.00;4.10;;;;;;;16.14;48.62;100818.19;5010607;28;20030;-82
2023/01/31 03:53:12;;;;;;;6.25;4.35;;;;;;;16.18;48.74;100815.47;5018353;28;20021;-82
2023/01/31 03:55:52;;;;;;;6.55;4.95;;;;;;;16.17;48.61;100819.00;5019357;28;20035;-84
2023/01/31 03:58:30;;;;;;;6.85;5.00;;;;;;;16.15;48.67;100812.91;5019830;28;20098;-83
2023/01/31 04:01:41;;;;;;;6.65;4.70;;;;;;;16.17;48.89;100818.16;5016486;28;20066;-84
2023/01/31 04:04:34;;;;;;;6.22;4.00;;;;;;;16.21;48.65;100825.06;5017557;28;20058;-83
2023/01/31 04:07:17;;;;;;;5.80;4.03;;;;;;;16.21;48.60;100820.69;5011725;28;20098;-83
2023/01/31 04:09:42;;;;;;;5.82;4.30;;;;;;;16.19;48.50;100821.63;5015326;28;20023;-83
2023/01/31 04:12:13;;;;;;;6.30;4.65;;;;;;;16.20;48.80;100821.59;5029246;28;20030;-83
2023/01/31 04:14:39;;;;;;;6.05;4.32;;;;;;;16.17;48.47;100818.16;5019890;28;20013;-84
2023/01/31 04:17:05;;;;;;;6.45;4.38;;;;;;;16.18;48.79;100817.25;5019441;28;20034;-83
2023/01/31 04:19:30;;;;;;;5.78;4.47;;;;;;;16.18;48.65;100825.16;5035847;28;20105;-84
2023/01/31 04:22:39;;;;;;;6.35;4.18;;;;;;;16.24;48.62;100827.66;5037078;28;20022;-83
2023/01/31 04:25:43;;;;;;;5.60;4.10;;;;;;;16.22;48.47;100834.72;4939434;29;20056;-84
2023/01/31 04:28:10;;;;;;;6.75;4.57;;;;;;;16.18;48.59;100830.41;4934546;29;20050;-82
2023/01/31 04:30:36;;;;;;;7.03;4.78;;;;;;;16.22;48.81;100832.06;4932428;29;20509;-82
2023/01/31 04:33:07;;;;;;;6.22;4.15;;;;;;;16.20;48.90;100828.63;4932810;29;20072;-82
2023/01/31 04:35:33;;;;;;;5.28;3.78;;;;;;;16.23;48.69;100839.09;4930968;29;20044;-83
2023/01/31 04:37:59;;;;;;;5.75;3.88;;;;;;;16.20;48.65;100833.88;4930705;29;20035;-82
2023/01/31 04:40:26;;;;;;;7.03;4.50;;;;;;;16.23;48.47;100839.09;4931388;29;20032;-83
2023/01/31 04:42:54;;;;;;;5.65;4.03;;;;;;;16.24;48.89;100832.94;4931263;29;20075;-82
2023/01/31 04:45:20;;;;;;;6.22;4.40;;;;;;;16.27;48.54;100848.66;4930812;29;20088;-81
2023/01/31 04:47:48;;;;;;;6.55;4.60;;;;;;;16.24;48.61;100852.22;4930863;29;20044;-81
2023/01/31 04:50:14;;;;;;;6.40;4.13;;;;;;;16.21;48.72;100841.75;4928736;29;20153;-81
2023/01/31 04:52:40;;;;;;;5.57;4.43;;;;;;;16.24;48.80;100852.22;4928662;29;20044;-81
2023/01/31 04:55:09;;;;;;;6.40;4.35;;;;;;;16.28;48.67;100847.78;4939445;29;20039;-82
2023/01/31 04:57:34;;;;;;;6.25;4.25;;;;;;;16.21;48.76;100841.75;4930902;29;20031;-82
2023/01/31 05:00:00;;;;;;;5.25;3.58;;;;;;;16.30;48.84;100851.25;4960809;29;20035;-81
2023/01/31 05:02:25;;;;;;;6.20;4.43;;;;;;;16.29;48.72;100852.16;4959461;29;20043;-82
2023/01/31 05:04:51;;;;;;;6.28;4.28;;;;;;;16.30;48.56;100853.88;4979155;28;20508;-82
2023/01/31 05:07:16;;;;;;;5.75;4.13;;;;;;;16.30;48.66;100861.78;4964364;29;20109;-82
2023/01/31 05:09:43;;;;;;;6.03;4.40;;;;;;;16.28;48.62;100847.78;4968873;29;20107;-82
2023/01/31 05:12:17;;;;;;;6.45;3.88;;;;;;;16.25;48.74;100853.09;4969873;29;20032;-82
2023/01/31 05:14:51;;;;;;;6.45;4.32;;;;;;;16.24;48.73;100846.09;4968678;29;20058;-83
2023/01/31 05:17:35;;;;;;;6.07;4.38;;;;;;;16.30;48.66;100853.88;4965133;29;20132;-82
2023/01/31 05:20:01;;;;;;;6.10;3.83;;;;;;;16.32;48.88;100861.78;4946660;29;20031;-80
2023/01/31 05:22:31;;;;;;;5.85;3.85;;;;;;;16.31;48.37;100862.63;5010064;28;20034;-82
2023/01/31 05:24:58;;;;;;;5.25;3.70;;;;;;;16.33;48.41;100872.25;4989237;28;20026;-82
2023/01/31 05:27:25;;;;;;;5.65;3.88;;;;;;;16.36;48.53;100879.22;5004288;28;20096;-82
2023/01/31 05:29:50;;;;;;;5.40;3.67;;;;;;;16.37;48.47;100878.38;5024048;28;20034;-82
2023/01/31 05:32:20;;;;;;;6.20;4.00;;;;;;;16.36;48.66;100876.59;5005548;28;20124;-83
2023/01/31 05:34:46;;;;;;;5.90;3.90;;;;;;;16.30;48.41;100867.06;5016816;28;20033;-83
2023/01/31 05:37:12;;;;;;;5.50;3.70;;;;;;;16.28;48.65;100867.97;5034592;28;20212;-84
2023/01/31 05:39:44;;;;;;;5.53;4.00;;;;;;;16.32;48.51;100870.53;5032358;28;20018;-83
2023/01/31 05:42:16;;;;;;;5.50;3.30;;;;;;;16.33;48.77;100872.25;5015290;28;20026;-84
2023/01/31 05:44:42;;;;;;;5.78;3.97;;;;;;;16.41;48.49;100876.53;5034914;28;20041;-84
2023/01/31 05:49:43;;;;;;;5.00;3.55;;;;;;;16.33;48.67;100872.25;5111213;22;20038;-84
2023/01/31 05:52:10;;;;;;;5.70;3.92;;;;;;;16.40;48.76;100882.66;5055834;28;20045;-84
2023/01/31 05:54:35;;;;;;;5.60;3.33;;;;;;;16.35;48.60;100870.47;5039341;28;20087;-85
2023/01/31 05:57:01;;;;;;;5.15;3.53;;;;;;;16.38;48.73;100888.84;5057226;28;20013;-83
2023/01/31 05:59:29;;;;;;;6.10;4.30;;;;;;;16.32;48.71;100870.53;5060268;28;20482;-83
2023/01/31 06:01:55;;;;;;;5.32;3.70;;;;;;;16.36;48.43;100877.47;5253457;22;20033;-83
2023/01/31 06:04:36;;;;;;;5.88;3.75;;;;;;;16.35;48.55;100870.47;5024405;28;20061;-83
2023/01/31 06:07:03;;;;;;;5.70;4.07;;;;;;;16.38;48.88;100880.94;5038451;28;20033;-83
2023/01/31 06:09:29;;;;;;;5.38;3.40;;;;;;;16.37;48.52;100873.09;5054776;28;20052;-83
2023/01/31 06:11:55;;;;;;;5.55;3.88;;;;;;;16.43;48.88;100872.09;5036415;28;20025;-83
2023/01/31 06:14:34;;;;;;;6.50;3.97;;;;;;;16.41;48.67;100879.16;5033402;28;20068;-83
2023/01/31 06:17:02;;;;;;;6.20;4.25;;;;;;;16.40;48.67;100875.66;5037129;28;20091;-83
2023/01/31 06:19:28;;;;;;;6.32;4.22;;;;;;;16.40;48.63;100878.28;5055943;28;20005;-83
2023/01/31 06:21:54;;;;;;;5.82;3.72;;;;;;;16.39;48.45;100873.91;5036242;28;20013;-82
2023/01/31 06:24:20;;;;;;;8.57;4.00;;;;;;;16.40;48.80;100872.13;5037200;28;20120;-82
2023/01/31 06:26:46;;;;;;;5.65;3.60;;;;;;;16.42;49.06;100880.91;5044881;28;20089;-83
2023/01/31 06:29:11;;;;;;;5.35;3.63;;;;;;;16.44;48.98;100884.38;5011547;28;20033;-81
2023/01/31 06:31:37;;;;;;;5.10;3.70;;;;;;;16.42;48.82;100887.03;5050034;28;20024;-82
2023/01/31 06:34:07;;;;;;;7.30;4.10;;;;;;;16.45;48.80;100891.34;5048686;28;20112;-79
2023/01/31 06:36:32;;;;;;;5.57;3.85;;;;;;;16.44;49.00;100889.63;5037910;28;20045;-79
2023/01/31 06:38:58;;;;;;;5.57;4.00;;;;;;;16.44;48.87;100889.63;5031740;28;20096;-79
2023/01/31 06:41:24;;;;;;;5.70;4.00;;;;;;;16.46;48.98;100882.59;5019156;28;20037;-81
2023/01/31 06:43:50;;;;;;;5.63;3.60;;;;;;;16.47;48.96;100887.81;5041008;28;20022;-82
2023/01/31 06:46:16;;;;;;;6.95;3.90;;;;;;;16.46;48.96;100880.81;5032057;28;20032;-82
2023/01/31 06:48:42;;;;;;;6.47;4.03;;;;;;;16.49;49.05;100888.66;5030020;28;20013;-83
2023/01/31 06:51:08;;;;;;;6.93;3.67;;;;;;;16.49;48.89;100893.06;5057844;28;20028;-82
2023/01/31 06:53:34;;;;;;;6.18;4.03;;;;;;;16.48;49.18;100891.31;5035121;28;20037;-83
2023/01/31 06:55:59;;;;;;;5.15;3.45;;;;;;;16.48;49.18;100891.31;5054675;28;20021;-83
2023/01/31 06:58:24;;;;;;;5.80;3.95;;;;;;;16.50;49.26;100889.50;5057798;28;20025;-84
2023/01/31 07:00:50;;;;;;;5.70;3.63;;;;;;;16.50;49.15;100887.75;5057778;28;20076;-83
2023/01/31 07:03:15;;;;;;;5.90;4.00;;;;;;;16.51;49.02;100891.25;5057555;28;20029;-84
2023/01/31 07:05:41;;;;;;;5.55;3.53;;;;;;;16.51;49.06;100896.50;5041274;28;20093;-84
2023/01/31 07:08:07;;;;;;;6.07;3.50;;;;;;;16.51;48.83;100896.50;5058759;28;20006;-83
2023/01/31 07:10:32;;;;;;;5.60;3.70;;;;;;;16.51;49.23;100896.50;5046708;28;20060;-84
2023/01/31 07:12:57;;;;;;;6.70;3.92;;;;;;;16.53;49.14;100899.13;5023410;28;20029;-84
2023/01/31 07:15:23;;;;;;;5.95;3.65;;;;;;;16.51;48.86;100907.94;5023306;28;20081;-84
2023/01/31 07:17:48;;;;;;;7.25;3.92;;;;;;;16.56;48.95;100915.75;5040488;28;20002;-84
2023/01/31 07:20:14;;;;;;;5.70;3.88;;;;;;;16.51;49.06;100918.47;5060239;28;20040;-84
2023/01/31 07:22:39;;;;;;;6.18;3.90;;;;;;;16.55;49.04;100919.28;5059979;28;20121;-84
2023/01/31 07:25:05;;;;;;;6.07;3.58;;;;;;;16.53;48.81;100921.09;5060052;28;20020;-84
2023/01/31 07:27:30;;;;;;;4.97;3.25;;;;;;;16.54;49.05;100919.31;5059623;28;20024;-84
2023/01/31 07:29:56;;;;;;;6.25;3.60;;;;;;;16.57;49.11;100922.75;5076147;28;20005;-84
2023/01/31 07:32:21;;;;;;;5.32;3.67;;;;;;;16.55;49.08;100921.06;5042140;28;20026;-84
2023/01/31 07:34:47;;;;;;;5.30;3.28;;;;;;;16.54;49.03;100920.19;5042402;28;20033;-83
2023/01/31 07:37:12;;;;;;;5.18;3.58;;;;;;;16.56;49.04;100930.69;5059626;28;20085;-84
2023/01/31 07:39:40;;;;;;;5.90;4.05;;;;;;;16.55;48.78;100929.81;5058165;28;20022;-83
2023/01/31 07:42:06;;;;;;;6.63;3.92;;;;;;;16.54;48.87;100933.34;5058143;28;20006;-84
2023/01/31 07:44:31;;;;;;;4.93;3.10;;;;;;;16.57;48.69;100932.44;5057681;28;20136;-83
2023/01/31 07:46:57;;;;;;;5.85;3.80;;;;;;;16.57;48.76;100937.72;5041996;28;20089;-83
2023/01/31 07:49:23;;;;;;;6.15;3.90;;;;;;;16.53;48.82;100936.91;5037338;28;20034;-84
2023/01/31 07:51:49;;;;;;;6.38;3.72;;;;;;;16.53;48.62;100939.53;5037273;28;20009;-83
2023/01/31 07:54:15;;;;;;;5.30;3.15;;;;;;;16.60;48.66;100943.78;5038563;28;20017;-84
2023/01/31 07:56:40;;;;;;;5.63;3.63;;;;;;;16.56;48.83;100931.56;5039061;28;20037;-83
2023/01/31 07:59:06;;;;;;;5.88;3.60;;;;;;;16.54;48.79;100938.63;5038946;28;20006;-84
2023/01/31 08:04:16;;;;;;;5.93;3.50;;;;;;;16.56;48.91;100942.09;5039531;28;20073;-84
2023/01/31 08:06:43;;;;;;;5.47;3.60;;;;;;;16.59;48.80;100947.31;5039268;28;20049;-84
2023/01/31 08:09:09;;;;;;;5.68;3.60;;;;;;;16.56;49.09;100947.38;5039440;28;20021;-84
2023/01/31 08:11:36;;;;;;;5.85;3.70;;;;;;;16.52;48.70;100940.44;5039416;28;20052;-83
2023/01/31 08:14:03;;;;;;;5.72;3.45;;;;;;;16.56;48.88;100944.72;5038043;28;20032;-81
2023/01/31 08:32:22;;;;;;;6.30;3.50;;;;;;;16.59;48.68;100957.88;6259270;22;1471406;-84
2023/01/31 08:34:48;;;;;;;6.78;3.90;;;;;;;16.57;48.59;100964.91;6309740;22;20011;-83
2023/01/31 08:37:36;;;;;;;5.38;3.60;;;;;;;16.59;48.66;100973.69;6258399;22;20006;-84
2023/01/31 08:40:01;;;;;;;5.20;3.47;;;;;;;16.60;48.95;100964.88;6311251;22;20053;-84
2023/01/31 08:42:27;;;;;;;5.38;3.50;;;;;;;16.59;48.75;100973.69;6309035;22;20003;-83
2023/01/31 08:44:53;;;;;;;6.05;3.20;;;;;;;16.61;48.81;100982.41;6310269;22;20330;-84
2023/01/31 08:47:19;;;;;;;5.18;3.58;;;;;;;16.60;48.72;100985.94;6309589;22;20000;-83
2023/01/31 08:49:45;;;;;;;5.05;3.45;;;;;;;16.63;48.60;100985.91;6308720;22;20018;-83
2023/01/31 08:52:11;;;;;;;6.22;3.30;;;;;;;16.62;48.71;100991.19;6309299;22;19991;-83
2023/01/31 08:54:36;;;;;;;5.40;3.60;;;;;;;16.66;48.90;100995.50;6305850;22;20004;-83
2023/01/31 08:57:09;;;;;;;5.50;3.30;;;;;;;16.63;48.89;100992.94;6275838;22;20003;-83
2023/01/31 08:59:35;;;;;;;5.80;3.72;;;;;;;16.59;48.75;100988.59;6308557;22;20007;-83
2023/01/31 09:02:01;;;;;;;5.28;3.17;;;;;;;16.59;48.82;100989.50;6311415;22;20022;-84
2023/01/31 09:04:27;;;;;;;5.72;3.85;;;;;;;16.60;48.79;100983.31;6284699;22;20084;-84
2023/01/31 09:06:54;;;;;;;5.85;3.50;;;;;;;16.59;48.88;100985.97;6309719;22;19996;-84
2023/01/31 09:09:20;;;;;;;6.10;3.40;;;;;;;16.64;48.93;100992.91;6308507;22;20051;-84
2023/01/31 09:11:46;;;;;;;5.43;3.58;;;;;;;16.63;48.58;100985.03;6308415;22;20004;-84
2023/01/31 09:14:12;;;;;;;5.80;3.60;;;;;;;16.64;48.61;100985.00;6310113;22;19980;-84
2023/01/31 09:16:37;;;;;;;4.47;3.10;;;;;;;16.58;48.99;100982.47;6311112;22;20038;-84
2023/01/31 09:19:03;;;;;;;5.53;3.53;;;;;;;16.65;48.64;100988.50;6311928;22;20052;-84
2023/01/31 09:21:29;;;;;;;4.40;3.03;;;;;;;16.63;48.91;100985.91;6311490;22;20000;-84
2023/01/31 09:23:57;;;;;;;5.30;3.45;;;;;;;16.64;49.07;100987.66;6310538;22;19995;-84
2023/01/31 09:26:23;;;;;;;5.13;3.33;;;;;;;16.67;48.89;100996.38;6307816;22;20004;-84
2023/01/31 09:28:49;;;;;;;5.30;3.28;;;;;;;16.62;49.00;100989.41;6302707;22;20000;-84
2023/01/31 09:31:17;;;;;;;5.90;3.50;;;;;;;16.69;48.55;100981.41;6301657;22;19984;-84
2023/01/31 09:33:43;;;;;;;5.07;3.28;;;;;;;16.66;48.75;100978.84;6301479;22;20008;-84
2023/01/31 09:36:13;;;;;;;4.75;3.30;;;;;;;16.70;48.85;100989.28;6274448;22;20006;-84
2023/01/31 09:38:39;;;;;;;4.63;3.15;;;;;;;16.69;49.00;100990.19;6302414;22;20082;-84
2023/01/31 09:41:14;;;;;;;8.95;3.58;;;;;;;16.72;48.70;100989.25;6301380;22;20034;-83
2023/01/31 09:43:46;;;;;;;5.10;3.35;;;;;;;16.67;48.95;100980.56;6286763;22;20414;-81
2023/01/31 09:46:18;;;;;;;5.97;3.60;;;;;;;16.66;48.73;100979.69;6291974;22;19999;-81
2023/01/31 09:48:48;;;;;;;6.32;4.00;;;;;;;16.67;48.66;100986.72;6255488;22;20000;-81
2023/01/31 09:51:15;;;;;;;5.65;3.50;;;;;;;16.69;48.70;100990.19;6283940;22;20004;-83
2023/01/31 09:53:43;;;;;;;6.22;3.92;;;;;;;16.71;48.81;100993.66;6290311;22;20022;-82
2023/01/31 09:56:08;;;;;;;6.97;4.47;;;;;;;16.72;48.81;100989.25;6280489;22;20011;-80
2023/01/31 09:59:03;;;;;;;7.05;3.60;;;;;;;16.72;48.96;100989.25;6251744;22;20007;-80
2023/01/31 10:02:10;;;;;;;6.47;3.92;;;;;;;16.75;48.98;100994.47;6289851;22;20004;-83
2023/01/31 10:05:04;;;;;;;6.97;4.28;;;;;;;16.75;48.70;100989.19;6291377;22;20006;-78
2023/01/31 10:07:44;;;;;;;7.35;4.25;;;;;;;16.76;48.94;100985.69;6295903;22;20034;-80
2023/01/31 10:10:31;;;;;;;8.23;4.32;;;;;;;16.76;48.94;100985.69;6288733;22;19999;-83
2023/01/31 10:12:59;;;;;;;;;;;;;;;16.77;48.93;100985.63;6260569;22;20012;-79
2023/01/31 10:15:41;;;;;;;7.60;4.35;;;;;;;16.76;49.01;100981.25;6289295;22;19914;-81
2023/01/31 10:18:23;;;;;;;9.50;5.32;;;;;;;16.76;48.75;100985.69;6265082;22;20011;-82
2023/01/31 10:21:17;;;;;;;10.13;5.05;;;;;;;16.79;48.85;100977.69;6289803;22;20015;-79
2023/01/31 10:23:49;;;;;;;9.52;4.53;;;;;;;16.80;48.80;100976.78;6274966;22;20095;-79
2023/01/31 10:26:22;;;;;;;9.48;5.40;;;;;;;16.79;49.02;100975.06;6286739;22;20008;-80
2023/01/31 10:29:27;;;;;;;9.30;5.80;;;;;;;16.81;48.84;100983.81;6257028;22;20007;-79
2023/01/31 10:31:59;;;;;;;11.27;5.75;;;;;;;16.83;48.93;100982.03;6158268;23;20006;-80
2023/01/31 10:34:47;;;;;;;11.43;5.72;;;;;;;16.83;48.86;100984.66;6159538;23;20005;-80
2023/01/31 10:37:36;;;;;;;12.75;6.68;;;;;;;16.83;48.86;100982.03;6162453;23;20541;-82
2023/01/31 10:40:14;;;;;;;10.23;5.85;;;;;;;16.84;48.84;100977.59;6157918;23;20006;-79
2023/01/31 10:42:44;;;;;;;15.20;6.88;;;;;;;16.83;48.60;100975.88;6159401;23;20333;-81
2023/01/31 10:45:21;;;;;;;11.60;6.18;;;;;;;16.83;48.89;100971.47;6158244;23;20113;-81
2023/01/31 10:47:59;;;;;;;10.88;6.28;;;;;;;16.85;48.85;100969.66;6132526;23;20060;-80
2023/01/31 10:50:38;;;;;;;11.52;6.38;;;;;;;16.84;48.82;100962.66;6159366;23;20009;-82
2023/01/31 10:53:13;;;;;;;13.27;6.40;;;;;;;16.89;48.92;100958.16;6159379;23;20009;-82
2023/01/31 10:55:42;;;;;;;13.13;7.15;;;;;;;16.88;48.82;100964.34;6158109;23;20009;-82
2023/01/31 10:58:16;;;;;;;13.38;7.43;;;;;;;16.91;48.67;100966.06;6133947;23;20527;-81
2023/01/31 11:00:46;;;;;;;14.73;6.85;;;;;;;16.90;49.04;100956.38;6158927;23;20109;-79
2023/01/31 11:03:13;;;;;;;16.38;7.70;;;;;;;16.91;48.85;100942.31;6154077;23;20076;-80
2023/01/31 11:05:55;;;;;;;13.13;7.40;;;;;;;16.94;48.76;100941.41;6154742;23;20005;-79
2023/01/31 11:08:29;;;;;;;11.57;6.35;;;;;;;16.94;48.73;100936.13;6210157;22;20391;-80
2023/01/31 11:10:57;;;;;;;14.40;7.53;;;;;;;16.92;48.68;100930.88;6282860;22;20053;-82
2023/01/31 11:13:23;;;;;;;11.98;6.78;;;;;;;16.91;48.85;100926.50;6281087;22;19999;-79
2023/01/31 11:15:52;;;;;;;15.73;7.97;;;;;;;16.92;48.70;100925.59;6279253;22;20087;-79
2023/01/31 11:18:26;;;;;;;17.02;7.40;;;;;;;16.95;48.89;100927.31;6277987;22;20011;-80
2023/01/31 11:20:52;;;;;;;10.88;7.03;;;;;;;16.97;48.53;100925.50;6251216;22;20061;-80
2023/01/31 11:23:33;;;;;;;12.48;6.97;;;;;;;16.99;49.11;100923.69;6255563;22;20014;-80
2023/01/31 11:25:59;;;;;;;12.52;6.50;;;;;;;16.97;48.67;100914.94;6281006;22;20003;-81
2023/01/31 11:28:37;;;;;;;11.80;6.63;;;;;;;16.98;49.01;100906.13;6276909;22;20006;-79
2023/01/31 11:31:16;;;;;;;13.18;6.57;;;;;;;17.03;49.06;100909.56;6260751;22;20000;-82
2023/01/31 11:33:54;;;;;;;14.82;7.65;;;;;;;17.02;49.03;100908.72;6283857;22;20011;-83
2023/01/31 11:36:22;;;;;;;15.55;8.07;;;;;;;17.01;48.91;100900.81;6279620;22;20004;-81
2023/01/31 11:38:49;;;;;;;11.35;6.88;;;;;;;17.06;48.83;100904.25;6283027;22;20082;-80
2023/01/31 11:41:36;;;;;;;15.00;6.95;;;;;;;17.08;49.09;100897.16;6282797;22;19999;-79
2023/01/31 11:44:17;;;;;;;13.18;6.20;;;;;;;17.06;48.68;100898.97;6281891;22;20014;-81
2023/01/31 11:46:55;;;;;;;13.60;7.35;;;;;;;17.08;49.05;100897.16;6227561;22;20082;-81
2023/01/31 11:49:40;;;;;;;12.45;7.03;;;;;;;17.07;48.83;100895.44;6277727;22;20031;-80
2023/01/31 11:52:15;;;;;;;12.48;6.63;;;;;;;17.10;48.73;100887.44;6249455;22;20053;-80
2023/01/31 11:54:53;;;;;;;13.40;6.78;;;;;;;17.12;48.79;100888.28;6283956;22;20015;-83
2023/01/31 11:57:25;;;;;;;13.05;6.32;;;;;;;17.15;48.83;100888.22;6279363;22;19999;-83
2023/01/31 11:59:54;;;;;;;12.63;6.30;;;;;;;17.15;48.88;100882.94;6287058;22;20000;-82
2023/01/31 12:02:26;;;;;;;14.52;6.90;;;;;;;17.16;48.96;100889.09;6283225;22;19999;-82
2023/01/31 12:04:52;;;;;;;11.52;6.43;;;;;;;17.15;48.68;100888.22;6253210;22;20031;-82
2023/01/31 12:07:27;;;;;;;12.82;6.82;;;;;;;17.16;49.10;100874.09;6280217;22;20423;-81
2023/01/31 12:09:53;;;;;;;12.50;6.68;;;;;;;17.16;48.64;100874.09;6279257;22;20004;-81
2023/01/31 12:12:34;;;;;;;12.15;6.85;;;;;;;17.20;48.73;100881.97;6278996;22;20030;-81
2023/01/31 12:15:04;;;;;;;12.60;6.68;;;;;;;17.19;48.80;100873.19;6281086;22;20019;-82
2023/01/31 12:17:38;;;;;;;10.82;5.90;;;;;;;17.23;48.67;100868.72;6253517;22;20011;-81
2023/01/31 12:20:10;;;;;;;12.13;6.38;;;;;;;17.24;48.63;100867.81;6279069;22;20536;-81